createdAt,value
2022-10-24T00:00:44.056Z,9.60
2022-10-24T00:05:47.808Z,12.15
2022-10-24T00:10:49.920Z,3.75
2022-10-24T00:15:52.860Z,8.30
2022-10-24T00:20:54.974Z,7.47
2022-10-24T00:25:57.076Z,3.35
2022-10-24T00:30:59.251Z,4.22
2022-10-24T00:36:01.394Z,5.85
2022-10-24T00:41:03.500Z,7.25
2022-10-24T00:46:05.780Z,4.35
2022-10-24T00:51:19.618Z,5.03
2022-10-24T00:56:24.319Z,3.63
2022-10-24T01:01:27.634Z,3.80
2022-10-24T01:07:00.551Z,6.95
2022-10-24T01:12:31.472Z,6.93
2022-10-24T01:17:48.478Z,9.27
2022-10-24T01:23:02.541Z,6.38
2022-10-24T01:28:09.467Z,6.68
2022-10-24T01:33:35.952Z,7.78
2022-10-24T01:38:46.504Z,4.30
2022-10-24T01:44:09.771Z,9.77
2022-10-24T01:49:17.886Z,4.87
2022-10-24T01:54:21.282Z,5.20
2022-10-24T01:59:26.428Z,6.95
2022-10-24T02:04:32.196Z,9.25
2022-10-24T02:09:36.421Z,10.48
2022-10-24T02:14:47.677Z,10.77
2022-10-24T02:19:50.160Z,12.70
2022-10-24T02:24:57.777Z,7.75
2022-10-24T02:30:10.876Z,11.55
2022-10-24T02:35:15.730Z,8.90
2022-10-24T02:40:20.370Z,5.10
2022-10-24T02:45:23.940Z,9.43
2022-10-24T02:50:27.179Z,8.75
2022-10-24T02:55:29.281Z,9.68
2022-10-24T03:00:31.503Z,6.75
2022-10-24T03:05:33.613Z,9.13
2022-10-24T03:10:35.740Z,6.35
2022-10-24T03:15:38.380Z,6.88
2022-10-24T03:20:40.561Z,5.60
2022-10-24T03:25:42.824Z,7.83
2022-10-24T03:30:44.945Z,8.13
2022-10-24T03:35:47.068Z,6.78
2022-10-24T03:40:50.072Z,7.50
2022-10-24T03:45:52.184Z,10.68
2022-10-24T03:50:54.633Z,9.20
2022-10-24T03:55:56.760Z,4.57
2022-10-24T04:00:59.648Z,7.45
2022-10-24T04:06:01.953Z,11.98
2022-10-24T04:11:04.637Z,9.83
2022-10-24T04:16:07.806Z,9.23
2022-10-24T04:26:15.340Z,11.20
2022-10-24T04:31:20.910Z,8.43
2022-10-24T04:36:25.812Z,5.47
2022-10-24T04:41:28.047Z,5.90
2022-10-24T04:46:30.220Z,5.57
2022-10-24T04:51:32.313Z,5.03
2022-10-24T04:56:34.769Z,3.95
2022-10-24T05:01:36.887Z,4.60
2022-10-24T05:06:40.355Z,5.73
2022-10-24T05:11:45.382Z,7.32
2022-10-24T05:16:47.637Z,6.38
2022-10-24T05:21:49.717Z,3.87
2022-10-24T05:26:51.932Z,5.10
2022-10-24T05:31:54.174Z,5.83
2022-10-24T05:36:56.354Z,5.37
2022-10-24T05:41:58.601Z,5.83
2022-10-24T05:47:00.916Z,4.90
2022-10-24T05:52:03.551Z,7.03
2022-10-24T05:57:05.749Z,8.52
2022-10-24T06:02:13.429Z,3.60
2022-10-24T06:07:15.609Z,6.10
2022-10-24T06:12:17.721Z,2.30
2022-10-24T06:17:19.821Z,6.05
2022-10-24T06:22:22.068Z,10.30
2022-10-24T06:27:24.497Z,5.47
2022-10-24T06:32:26.597Z,4.63
2022-10-24T06:37:28.851Z,5.10
2022-10-24T06:42:30.948Z,9.33
2022-10-24T06:47:33.102Z,7.82
2022-10-24T06:52:36.857Z,7.23
2022-10-24T06:57:39.181Z,4.53
2022-10-24T07:02:41.641Z,6.70
2022-10-24T07:07:44.944Z,6.00
2022-10-24T07:12:47.568Z,7.70
2022-10-24T07:17:50.022Z,3.10
2022-10-24T07:22:52.400Z,6.97
2022-10-24T07:27:54.721Z,5.38
2022-10-24T07:32:56.834Z,5.87
2022-10-24T07:37:59.038Z,3.97
2022-10-24T07:43:01.222Z,4.97
2022-10-24T07:48:03.571Z,4.93
2022-10-24T07:53:05.762Z,4.63
2022-10-24T07:58:11.450Z,5.03
2022-10-24T08:03:13.630Z,6.70
2022-10-24T08:13:38.745Z,3.67
2022-10-24T08:18:41.103Z,5.03
2022-10-24T08:23:46.303Z,4.32
2022-10-24T08:28:49.071Z,9.60
2022-10-24T08:33:53.832Z,2.17
2022-10-24T08:38:56.503Z,8.07
2022-10-24T08:44:02.260Z,6.50
2022-10-24T08:49:23.754Z,4.85
2022-10-24T08:54:33.741Z,6.70
2022-10-24T08:59:36.587Z,8.75
2022-10-24T09:04:44.434Z,4.03
2022-10-24T09:09:50.210Z,8.65
2022-10-24T09:14:58.457Z,8.20
2022-10-24T09:20:25.044Z,5.93
2022-10-24T09:25:31.699Z,5.85
2022-10-24T09:30:36.436Z,6.00
2022-10-24T09:35:38.904Z,6.88
2022-10-24T09:40:41.056Z,9.48
2022-10-24T09:45:50.848Z,6.07
2022-10-24T09:50:54.732Z,5.72
2022-10-24T09:56:11.357Z,4.32
2022-10-24T10:01:16.570Z,4.72
2022-10-24T10:06:20.813Z,6.32
2022-10-24T10:11:27.212Z,4.57
2022-10-24T10:16:36.836Z,3.10
2022-10-24T10:21:57.662Z,5.65
2022-10-24T10:27:00.165Z,3.00
2022-10-24T10:32:13.289Z,5.93
2022-10-24T10:37:21.282Z,4.57
2022-10-24T10:42:56.446Z,7.72
2022-10-24T10:48:04.187Z,4.88
2022-10-24T10:53:37.937Z,4.13
2022-10-24T10:58:48.065Z,12.63
2022-10-24T11:04:49.249Z,5.80
2022-10-24T11:10:15.595Z,7.25
2022-10-24T11:15:44.262Z,3.90
2022-10-24T11:20:52.899Z,4.63
2022-10-24T11:25:58.006Z,5.90
2022-10-24T11:31:40.987Z,7.88
2022-10-24T11:37:07.156Z,6.70
2022-10-24T11:43:07.790Z,6.60
2022-10-24T11:48:34.696Z,10.00
2022-10-24T11:53:58.382Z,5.07
2022-10-24T11:59:03.613Z,4.25
2022-10-24T12:04:26.762Z,3.58
2022-10-24T12:09:37.641Z,5.07
2022-10-24T12:14:45.337Z,5.30
2022-10-24T12:19:50.573Z,2.45
2022-10-24T12:25:19.930Z,6.07
2022-10-24T12:30:23.788Z,4.07
2022-10-24T12:35:31.102Z,5.80
2022-10-24T12:40:43.007Z,3.70
2022-10-24T12:45:45.112Z,3.72
2022-10-24T12:50:56.293Z,5.57
2022-10-24T12:55:58.450Z,4.30
2022-10-24T13:01:13.111Z,9.47
2022-10-24T13:06:34.591Z,3.42
2022-10-24T13:12:07.266Z,6.80
2022-10-24T13:17:32.352Z,1.92
2022-10-24T13:22:36.691Z,4.03
2022-10-24T13:27:38.914Z,4.43
2022-10-24T13:32:41.005Z,3.87
2022-10-24T13:37:47.183Z,4.83
2022-10-24T13:42:57.944Z,5.63
2022-10-24T13:48:16.580Z,4.50
2022-10-24T13:53:29.757Z,3.83
2022-10-24T13:58:44.142Z,4.25
2022-10-24T14:03:49.159Z,2.70
2022-10-24T14:09:02.713Z,3.42
2022-10-24T14:14:25.481Z,7.82
2022-10-24T14:19:31.775Z,3.45
2022-10-24T14:24:44.033Z,10.07
2022-10-24T14:29:58.662Z,6.38
2022-10-24T14:40:17.219Z,6.90
2022-10-24T14:45:37.686Z,6.40
2022-10-24T14:50:45.567Z,4.28
2022-10-24T14:55:53.706Z,3.35
2022-10-24T15:00:57.793Z,9.27
2022-10-24T15:06:11.387Z,4.78
2022-10-24T15:16:34.656Z,5.80
2022-10-24T15:21:40.242Z,6.40
2022-10-24T15:26:42.783Z,5.30
2022-10-24T15:31:47.312Z,4.75
2022-10-24T15:36:52.198Z,5.32
2022-10-24T15:41:54.448Z,6.20
2022-10-24T15:46:57.192Z,2.40
2022-10-24T15:51:59.342Z,2.08
2022-10-24T15:57:05.006Z,4.22
2022-10-24T16:02:18.556Z,4.70
2022-10-24T16:07:20.672Z,4.43
2022-10-24T16:12:23.016Z,8.77
2022-10-24T16:17:25.119Z,5.67
2022-10-24T16:22:27.451Z,10.52
2022-10-24T16:27:29.588Z,3.83
2022-10-24T16:32:31.821Z,3.90
2022-10-24T16:37:34.130Z,10.43
2022-10-24T16:42:36.327Z,8.27
2022-10-24T16:47:38.425Z,7.70
2022-10-24T16:52:40.749Z,12.15
2022-10-24T16:57:43.052Z,10.32
2022-10-24T17:02:47.539Z,8.23
2022-10-24T17:07:52.578Z,8.00
2022-10-24T17:12:54.783Z,7.88
2022-10-24T17:17:56.918Z,3.38
2022-10-24T17:23:02.891Z,9.77
2022-10-24T17:28:08.319Z,9.05
2022-10-24T17:33:11.641Z,9.70
2022-10-24T17:38:34.385Z,9.63
2022-10-24T17:43:36.768Z,12.18
2022-10-24T17:48:39.393Z,11.53
2022-10-24T17:53:41.697Z,10.48
2022-10-24T17:58:44.238Z,8.33
2022-10-24T18:03:46.510Z,11.65
2022-10-24T18:08:52.866Z,15.73
2022-10-24T18:13:55.129Z,13.73
2022-10-24T18:18:57.305Z,10.18
2022-10-24T18:23:59.451Z,8.95
2022-10-24T18:29:01.699Z,12.70
2022-10-24T18:34:06.159Z,9.90
2022-10-24T18:39:09.848Z,14.63
2022-10-24T18:44:33.608Z,12.68
2022-10-24T18:49:36.349Z,17.13
2022-10-24T18:54:46.599Z,9.33
2022-10-24T18:59:49.090Z,9.77
2022-10-24T19:05:01.349Z,10.90
2022-10-24T19:10:03.893Z,8.38
2022-10-24T19:15:06.543Z,11.30
2022-10-24T19:20:18.397Z,15.23
2022-10-24T19:25:20.684Z,13.77
2022-10-24T19:30:22.857Z,8.60
2022-10-24T19:35:24.986Z,15.32
2022-10-24T19:40:27.121Z,11.25
2022-10-24T19:45:29.274Z,12.25
2022-10-24T19:50:31.396Z,11.75
2022-10-24T19:55:37.985Z,11.27
2022-10-24T20:00:41.229Z,12.52
2022-10-24T20:10:51.144Z,17.15
2022-10-24T20:16:06.180Z,13.13
2022-10-24T20:21:09.817Z,11.45
2022-10-24T20:26:21.282Z,16.85
2022-10-24T20:31:28.197Z,15.68
2022-10-24T20:36:31.556Z,15.32
2022-10-24T20:41:34.636Z,17.27
2022-10-24T20:46:36.785Z,13.20
2022-10-24T20:51:43.683Z,16.42
2022-10-24T20:56:45.857Z,11.85
2022-10-24T21:01:48.171Z,8.93
2022-10-24T21:06:50.319Z,15.07
2022-10-24T21:11:52.435Z,21.35
2022-10-24T21:16:54.589Z,10.90
2022-10-24T21:21:56.686Z,13.32
2022-10-24T21:26:58.968Z,12.00
2022-10-24T21:32:01.110Z,12.75
2022-10-24T21:37:04.764Z,20.10
2022-10-24T21:42:06.882Z,15.13
2022-10-24T21:47:08.981Z,12.27
2022-10-24T21:52:11.106Z,15.35
2022-10-24T21:57:13.216Z,16.80
2022-10-24T22:02:15.494Z,16.92
2022-10-24T22:07:17.695Z,13.27
2022-10-24T22:12:19.871Z,14.90
2022-10-24T22:17:22.012Z,18.30
2022-10-24T22:22:24.125Z,20.90
2022-10-24T22:27:26.241Z,18.23
2022-10-24T22:32:28.508Z,22.38
2022-10-24T22:37:32.146Z,25.02
2022-10-24T22:42:34.421Z,21.48
2022-10-24T22:47:55.350Z,23.98
2022-10-24T22:52:57.657Z,19.75
2022-10-24T22:58:00.250Z,23.27
2022-10-24T23:03:32.673Z,22.85
2022-10-24T23:08:39.725Z,27.63
2022-10-24T23:13:42.836Z,19.65
2022-10-24T23:18:45.320Z,24.90
2022-10-24T23:23:47.726Z,25.77
2022-10-24T23:28:58.739Z,29.07
2022-10-24T23:34:01.132Z,24.92
2022-10-24T23:39:03.496Z,27.93
2022-10-24T23:44:06.021Z,29.20
2022-10-24T23:49:38.892Z,31.67
2022-10-24T23:54:41.243Z,33.95
2022-10-24T23:59:44.764Z,36.23
